• Join FlightAware (Why Join?)
  • Login
  • US Flag 
03:06AM EDT


 

Airport Tracker/Info


-or-


 

Live Flight TrackerFlight Track Log ✈ SKW6278 ✈ 27-Apr-2013 ✈ CYYC - KSFO

Flight Track Log - Related Links

Times and Time Zones

All times are in EDT time to prevent confusion due to time zone crossing. See the SKW6278 flight status page for this flight to view local times or setup timezone preferences in your user account.

Time Position Orientation Groundspeed Altitude Reporting Facility
EDT Latitude Longitude Course Direction KTS MPH feet Rate Location/Type
06:23PM 51.1000 -114.0667 196° South 170 196 3,900  Level Edmonton Center
06:24PM 51.1333 -114.1167 317° Northwest 210 242 6,000 2,460 Climbing Edmonton Center
06:25PM 51.1333 -114.2333 270° West 210 242 8,900 2,340 Climbing Edmonton Center
06:26PM 50.6993 -114.3521 194° South  Level Estimated
06:26PM 51.0667 -114.2500 189° South 290 334 10,700  Level Edmonton Center
06:27PM 50.5955 -114.4341 180° South  Level Estimated
06:27PM 51.0000 -114.2833 197° South 310 357 12,300  Level Edmonton Center
06:28PM 50.4961 -114.5123 196° South  Level Estimated
06:28PM 50.9000 -114.3167 192° South 350 403 14,000  Level Edmonton Center
06:29PM 50.8000 -114.3500 192° South 360 414 15,800 1,800 Climbing Edmonton Center
06:30PM 50.7000 -114.3833 192° South 370 426 17,700 1,740 Climbing Edmonton Center
06:31PM 50.6000 -114.4333 198° South 390 449 19,300 1,620 Climbing Edmonton Center
06:32PM 50.4833 -114.4667 190° South 390 449 21,000 1,800 Climbing Edmonton Center
06:33PM 50.3833 -114.5000 192° South 400 460 22,900 1,800 Climbing Edmonton Center
06:34PM 50.2833 -114.5333 192° South 390 449 24,600 1,500 Climbing Edmonton Center
06:35PM 50.1667 -114.5667 190° South 390 449 26,000 1,260 Climbing Edmonton Center
06:36PM 50.0500 -114.6167 195° South 390 449 27,200 1,140 Climbing Edmonton Center
06:37PM 49.9500 -114.6500 192° South 400 460 28,300 960 Climbing Edmonton Center
06:38PM 49.8500 -114.6833 192° South 400 460 29,200 1,080 Climbing Edmonton Center
06:39PM 49.7333 -114.7000 185° South 400 460 30,500 1,200 Climbing Edmonton Center
06:40PM 49.6167 -114.7500 196° South 390 449 31,600 1,200 Climbing Edmonton Center
06:41PM 49.5167 -114.7833 192° South 390 449 32,900 1,020 Climbing Edmonton Center
06:42PM 49.4000 -114.8167 191° South 390 449 33,700 540 Climbing Edmonton Center
06:43PM 49.3000 -114.8500 192° South 390 449 34,000 120 Climbing Edmonton Center
06:44PM 49.1833 -114.9000 196° South 410 472 34,000  Level Edmonton Center
06:45PM 49.0667 -114.9333 191° South 410 472 34,000  Level Edmonton Center
06:46PM 48.9667 -114.9500 186° South 400 460 34,000  Level Edmonton Center
06:47PM 48.8667 -115.0167 204° Southwest 390 449 34,000  Level Edmonton Center
06:47PM 48.8411 -115.0133 175° South 391 450 34,000  Level Seattle Center
06:48PM 48.7339 -115.0644 197° South 401 461 34,000  Level Seattle Center
06:49PM 48.6242 -115.1197 198° South 414 476 34,000 -60 Level Seattle Center
06:50PM 48.5117 -115.1744 198° South 424 488 33,900  Descending Seattle Center
06:51PM 48.3808 -115.2369 198° South 417 480 34,000  Climbing Seattle Center
06:52PM 48.2742 -115.2878 198° South 409 471 34,000 -60 Level Seattle Center
06:53PM 48.1672 -115.3381 197° South 406 467 33,900  Descending Seattle Center
06:54PM 48.0617 -115.3894 198° South 404 465 34,000  Climbing Seattle Center
06:55PM 47.9589 -115.4375 197° South 406 467 34,000  Level Seattle Center
06:56PM 47.8461 -115.4900 197° South 417 480 34,000  Level Seattle Center
06:57PM 47.7292 -115.5453 198° South 425 489 34,000  Level Seattle Center
06:59PM 47.5986 -115.6072 198° South 417 480 34,000  Level Salt Lake Center
07:00PM 47.4883 -115.6583 197° South 418 481 34,000  Level Salt Lake Center
07:01PM 47.3778 -115.7092 197° South 419 482 34,000  Level Salt Lake Center
07:01PM 47.2914 -115.7492 197° South 415 478 34,000  Level Seattle Center
07:02PM 47.1803 -115.7989 197° South 417 480 34,000  Level Seattle Center
07:03PM 47.0706 -115.8500 198° South 414 476 34,000  Level Seattle Center
07:04PM 46.9581 -115.9008 197° South 419 482 34,000  Level Seattle Center
07:06PM 46.8447 -115.9533 198° South 425 489 34,000  Level Seattle Center
07:07PM 46.7061 -116.0161 197° South 427 491 34,000  Level Seattle Center
07:08PM 46.5942 -116.0633 196° South 429 494 34,000  Level Seattle Center
07:09PM 46.4803 -116.1181 198° South 429 494 34,000  Level Seattle Center
07:10PM 46.3647 -116.1678 197° South 432 497 34,000  Level Seattle Center
07:11PM 46.2508 -116.2183 197° South 429 494 34,000  Level Seattle Center
07:12PM 46.1347 -116.2700 197° South 435 501 34,000  Level Seattle Center
07:13PM 46.0200 -116.3217 197° South 432 497 34,000  Level Seattle Center
07:14PM 45.9042 -116.3731 197° South 435 501 34,000  Level Seattle Center
07:15PM 45.7878 -116.4206 196° South 435 501 34,000  Level Seattle Center
07:16PM 45.6722 -116.4725 197° South 437 503 34,000  Level Seattle Center
07:17PM 45.5481 -116.5264 197° South 435 501 34,000  Level Seattle Center
07:18PM 45.4367 -116.5736 197° South 436 502 34,000  Level Seattle Center
07:19PM 45.3250 -116.6206 196° South 439 505 34,000  Level Seattle Center
07:20PM 45.1942 -116.6775 197° South 441 507 34,000  Level Seattle Center
07:21PM 45.0822 -116.7242 196° South 439 505 34,000  Level Seattle Center
07:22PM 44.9708 -116.7722 197° South 439 505 34,000  Level Seattle Center
07:23PM 44.8400 -116.8272 197° South 440 506 34,000  Level Seattle Center
07:23PM 44.8033 -116.8431 197° South 441 507 34,000  Level Salt Lake Center
07:24PM 44.6914 -116.8894 196° South 440 506 34,000  Level Salt Lake Center
07:25PM 44.5606 -116.9439 197° South 441 507 34,000  Level Salt Lake Center
07:26PM 44.4481 -116.9897 196° South 442 509 34,000  Level Salt Lake Center
07:27PM 44.3189 -117.0514 199° South 442 509 34,000  Level Salt Lake Center
07:28PM 44.2072 -117.1056 199° South 443 510 34,000  Level Salt Lake Center
07:29PM 44.0939 -117.1597 199° South 449 517 34,000  Level Salt Lake Center
07:30PM 43.9633 -117.2211 199° South 446 513 34,000  Level Salt Lake Center
07:31PM 43.8528 -117.2764 200° South 443 510 34,000  Level Salt Lake Center
07:32PM 43.7208 -117.3383 199° South 448 516 34,000  Level Salt Lake Center
07:33PM 43.6081 -117.3922 199° South 449 517 34,000  Level Salt Lake Center
07:34PM 43.4972 -117.4447 199° South 442 509 34,000  Level Salt Lake Center
07:35PM 43.3647 -117.5075 199° South 450 518 34,000  Level Salt Lake Center
07:36PM 43.2503 -117.5617 199° South 454 522 34,000  Level Salt Lake Center
07:37PM 43.1169 -117.6233 199° South 453 521 34,000  Level Salt Lake Center
07:38PM 43.0033 -117.6772 199° South 453 521 34,000  Level Salt Lake Center
07:39PM 42.8875 -117.7300 198° South 456 525 34,000  Level Salt Lake Center
07:40PM 42.7567 -117.7922 199° South 446 513 34,000  Level Salt Lake Center
07:41PM 42.6453 -117.8414 198° South 438 504 34,000  Level Salt Lake Center
07:42PM 42.5467 -117.9197 210° Southwest 430 495 34,000  Level Salt Lake Center
07:43PM 42.4475 -118.0414 222° Southwest 429 494 34,000  Level Salt Lake Center
07:44PM 42.3508 -118.1589 222° Southwest 441 507 34,000  Level Salt Lake Center
07:45PM 42.2622 -118.2650 222° Southwest 444 511 34,000  Level Salt Lake Center
07:47PM 42.1739 -118.3711 222° Southwest 443 510 34,000  Level Salt Lake Center
07:48PM 42.0711 -118.4939 222° Southwest 442 509 34,000  Level Salt Lake Center
07:49PM 41.9817 -118.5986 221° Southwest 446 513 34,000  Level Salt Lake Center
07:50PM 41.8933 -118.7028 221° Southwest 443 510 34,000  Level Salt Lake Center
07:51PM 41.7906 -118.8256 222° Southwest 442 509 34,000  Level Salt Lake Center
07:52PM 41.7014 -118.9286 221° Southwest 442 509 34,000  Level Salt Lake Center
07:53PM 41.5978 -119.0503 221° Southwest 444 511 34,000  Level Salt Lake Center
07:54PM 41.4644 -119.2039 221° Southwest 442 509 34,000  Level Salt Lake Center
07:55PM 41.3744 -119.3069 221° Southwest 444 511 34,000  Level Salt Lake Center
07:56PM 41.2853 -119.4106 221° Southwest 443 510 34,000  Level Salt Lake Center
07:57PM 41.1828 -119.5269 221° Southwest 442 509 34,000  Level Salt Lake Center
07:58PM 41.0897 -119.6342 221° Southwest 443 510 34,000  Level Salt Lake Center
07:59PM 40.9964 -119.7403 221° Southwest 444 511 34,000  Level Salt Lake Center
08:00PM 40.9022 -119.8467 221° Southwest 444 511 34,000  Level Salt Lake Center
08:01PM 40.8083 -119.9519 220° Southwest 445 512 34,000  Level Salt Lake Center
08:02PM 40.7150 -120.0581 221° Southwest 445 512 34,000  Level Salt Lake Center
08:03PM 40.6192 -120.1642 220° Southwest 448 516 34,000  Level Salt Lake Center
08:04PM 40.5256 -120.2697 221° Southwest 446 513 34,000  Level Salt Lake Center
08:05PM 40.4117 -120.3958 220° Southwest 446 513 34,000  Level Salt Lake Center
08:06PM 40.3158 -120.5006 220° Southwest 449 517 34,000  Level Salt Lake Center
08:08PM 40.2083 -120.6167 220° Southwest 448 516 34,000  Level Oakland Center
08:09PM 40.1128 -120.7228 220° Southwest 450 518 34,000  Level Oakland Center
08:10PM 40.0156 -120.8297 220° Southwest 446 513 34,000  Level Oakland Center
08:11PM 39.9206 -120.9331 220° Southwest 446 513 34,000  Level Oakland Center
08:12PM 39.8253 -121.0353 220° Southwest 448 516 34,000  Level Oakland Center
08:13PM 39.7300 -121.1394 220° Southwest 448 516 34,000  Level Oakland Center
08:14PM 39.6172 -121.2608 220° Southwest 447 514 34,000  Level Oakland Center
08:15PM 39.5208 -121.3633 219° Southwest 449 517 34,000  Level Oakland Center
08:16PM 39.4256 -121.4681 220° Southwest 448 516 34,000  Level Oakland Center
08:17PM 39.3292 -121.5703 219° Southwest 450 518 34,000  Level Oakland Center
08:18PM 39.2331 -121.6725 219° Southwest 451 519 34,000  Level Oakland Center
08:19PM 39.1358 -121.7747 219° Southwest 455 524 34,000 -360 Level Oakland Center
08:20PM 39.0389 -121.8764 219° Southwest 454 522 33,300 -1,140 Descending Oakland Center
08:21PM 38.9431 -121.9772 219° Southwest 450 518 31,700 -1,740 Descending Oakland Center
08:22PM 38.8456 -122.0797 219° Southwest 456 525 29,800 -1,920 Descending Oakland Center
08:23PM 38.7461 -122.1825 219° Southwest 463 533 27,800 -1,380 Descending Oakland Center
08:24PM 38.6392 -122.2933 219° Southwest 464 534 27,000 -1,500 Descending Oakland Center
08:25PM 38.5408 -122.3953 219° Southwest 458 527 24,800 -2,280 Descending Oakland Center
08:26PM 38.4397 -122.4981 219° Southwest 468 539 22,400 -2,400 Descending Oakland Center
08:27PM 38.3444 -122.5961 219° Southwest 447 514 20,000 -2,460 Descending Oakland Center
08:28PM 38.2369 -122.7067 219° Southwest 419 482 17,400 -2,460 Descending Oakland Center
08:29PM 38.1353 -122.7564 201° Southwest 430 495 15,000 -2,400 Descending Oakland Center
08:30PM 38.0244 -122.7192 165° South 414 476 12,600 -1,980 Descending Oakland Center
08:31PM 37.9225 -122.6825 164° South 394 453 11,000 -840 Descending Oakland Center
08:32PM 37.8403 -122.6119 146° Southeast 377 434 11,000  Level Oakland Center
08:33PM 37.7783 -122.5444 139° Southeast 311 358 11,000  Level Oakland Center
08:34PM 37.7167 -122.4500 130° Southeast 260 299 11,000 -420 Level Northern Cal TRACON
08:35PM 37.6833 -122.3667 117° Southeast 267 307 10,200 -1,260 Descending Northern Cal TRACON
08:36PM 37.6667 -122.2833 104° East 255 293 8,500 -1,620 Descending Northern Cal TRACON
08:37PM 37.6333 -122.2000 117° Southeast 241 277 7,000 -1,320 Descending Northern Cal TRACON
08:38PM 37.6094 -122.1483 120° Southeast 229 264 6,000 -1,080 Descending Oakland Center
08:39PM 37.5814 -122.0861 120° Southeast 216 249 4,900 -1,140 Descending Oakland Center
08:40PM 37.5569 -122.1356 238° Southwest 205 236 3,800 -900 Descending Oakland Center
08:41PM 37.5581 -122.1961 271° West 183 211 3,100 -720 Descending Oakland Center